マヘ島 の空港の天気 - METARとTAF

セーシェル国際空港 ( FSIA / SEZ ) - セーシェル マヘ島
飛行場実況気象(Metar)
観測時間04/21 21:00 SCT (04/21 17:00 UTC)
風向・風速西北西 2m/s
視程10km以上
天気現象
少しの雲 雲底高度 730m
気温28℃
湿度79%
気圧1008hPa
METARFSIA 211700Z 30004KT 9999 FEW024 28/24 Q1008 NOSIG
過去の天気等 Google飛行場航空写真 Wunderground天気予報

過去48時間のMETAR

飛行場予報(TAF)
発表時間: 4/21 15:01 SCT (4/21 11:01 UTC)
予報対象時間: 21日16時 SCT ~ 22日16時 SCT
風向・風速北西 5m/s
視程10km以上
全天の4割程度の雲 雲底高度 760m
TAF FSIA 211101Z 2112/2212 32010KT 9999 SCT025